Time;durP1;ratioP1;P1;durP2;ratioP2;P2;SDS_P1;SDS_P2;PMS_P1;PMS_P2;Temp;Humidity;BMP_temperature;BMP_pressure;BME280_temperature;BME280_humidity;BME280_pressure;Samples;Min_cycle;Max_cycle;Signal;HPM_P1;HPM_P2
2022/09/10 00:00:39;;;;;;;0.77;0.77;;;10.10;99.90;;;;;;4988868;28;20038;-71
2022/09/10 00:03:05;;;;;;;0.30;0.30;;;10.10;99.90;;;;;;4987165;28;20034;-71
2022/09/10 00:05:42;;;;;;;2.20;0.80;;;10.20;99.90;;;;;;4988476;28;20030;-72
2022/09/10 00:08:08;;;;;;;0.50;0.50;;;10.20;99.90;;;;;;4988049;28;20501;-72
2022/09/10 00:10:41;;;;;;;0.40;0.40;;;10.20;99.90;;;;;;4988441;28;20023;-72
2022/09/10 00:13:08;;;;;;;0.30;0.30;;;10.30;99.90;;;;;;5004769;28;20058;-73
2022/09/10 00:15:42;;;;;;;0.38;0.38;;;10.30;99.90;;;;;;5007911;28;20028;-72
2022/09/10 00:18:09;;;;;;;0.43;0.43;;;10.30;99.90;;;;;;4994139;28;20426;-72
2022/09/10 00:20:41;;;;;;;0.75;0.75;;;10.30;99.90;;;;;;4988546;28;20027;-72
2022/09/10 00:23:06;;;;;;;0.70;0.70;;;10.30;99.90;;;;;;4988608;28;20494;-71
2022/09/10 00:25:32;;;;;;;0.60;0.60;;;10.30;99.90;;;;;;4988104;28;20026;-71
2022/09/10 00:27:59;;;;;;;0.60;0.60;;;10.30;99.90;;;;;;5001356;28;20481;-71
2022/09/10 00:30:26;;;;;;;0.30;0.30;;;10.30;99.90;;;;;;5007607;28;20113;-72
2022/09/10 00:32:52;;;;;;;0.40;0.40;;;10.40;99.90;;;;;;5007683;28;20029;-72
2022/09/10 00:35:21;;;;;;;0.70;0.70;;;10.20;99.90;;;;;;4995844;28;20462;-72
2022/09/10 00:37:46;;;;;;;0.30;0.30;;;10.10;99.90;;;;;;4988519;28;20065;-72
2022/09/10 00:40:13;;;;;;;0.50;0.50;;;10.10;99.90;;;;;;4988543;28;20458;-72
2022/09/10 00:42:43;;;;;;;0.63;0.63;;;10.10;99.90;;;;;;4989162;28;20090;-72
2022/09/10 00:45:18;;;;;;;0.30;0.30;;;10.00;99.90;;;;;;4988017;28;20041;-72
2022/09/10 00:47:46;;;;;;;0.40;0.40;;;10.00;99.90;;;;;;4988640;28;20033;-72
2022/09/10 00:50:18;;;;;;;0.32;0.32;;;10.00;99.90;;;;;;4988016;28;20033;-72
2022/09/10 00:52:46;;;;;;;1.02;1.02;;;10.00;99.90;;;;;;4988646;28;20030;-71
2022/09/10 00:55:13;;;;;;;0.63;0.60;;;9.90;99.90;;;;;;4988078;28;20101;-72
2022/09/10 00:57:40;;;;;;;0.40;0.40;;;9.90;99.90;;;;;;4989372;28;20038;-72
2022/09/10 01:00:09;;;;;;;0.60;0.60;;;9.90;99.90;;;;;;4986591;28;20030;-72
2022/09/10 01:02:35;;;;;;;0.35;0.35;;;9.90;99.90;;;;;;4988185;28;20469;-72
2022/09/10 01:05:03;;;;;;;0.60;0.60;;;9.80;99.90;;;;;;4987920;28;20037;-72
2022/09/10 01:07:29;;;;;;;0.60;0.60;;;9.80;99.90;;;;;;5003412;28;20038;-72
2022/09/10 01:09:58;;;;;;;0.40;0.40;;;9.80;99.90;;;;;;5007169;28;20026;-72
2022/09/10 01:12:37;;;;;;;0.75;0.75;;;9.80;99.90;;;;;;5005913;28;20030;-72
2022/09/10 01:15:29;;;;;;;0.40;0.40;;;9.80;99.90;;;;;;5005943;28;20537;-72
2022/09/10 01:18:02;;;;;;;0.43;0.43;;;9.80;99.90;;;;;;5007197;28;20042;-72
2022/09/10 01:20:48;;;;;;;0.40;0.40;;;9.70;99.90;;;;;;5007091;28;20025;-72
2022/09/10 01:23:56;;;;;;;0.47;0.47;;;9.70;99.90;;;;;;4987675;28;20101;-72
2022/09/10 01:26:46;;;;;;;0.40;0.40;;;9.80;99.90;;;;;;5034992;28;20054;-72
2022/09/10 01:29:47;;;;;;;1.15;1.15;;;9.70;99.90;;;;;;5001167;28;20473;-72
2022/09/10 01:32:21;;;;;;;0.60;0.60;;;9.80;99.90;;;;;;4982414;28;20085;-72
2022/09/10 01:35:07;;;;;;;0.43;0.43;;;9.70;99.90;;;;;;4971483;28;20022;-71
2022/09/10 01:37:36;;;;;;;0.40;0.40;;;9.70;99.90;;;;;;4995628;28;20125;-72
2022/09/10 01:40:03;;;;;;;0.40;0.40;;;9.70;99.90;;;;;;5010698;28;20494;-71
2022/09/10 01:42:29;;;;;;;;;;;9.70;99.90;;;;;;5011355;28;20038;-71
2022/09/10 01:44:56;;;;;;;0.50;0.50;;;10.90;99.90;;;;;;5006916;28;20323;-71
2022/09/10 01:47:47;;;;;;;0.30;0.30;;;9.80;99.90;;;;;;4971290;28;20030;-70
2022/09/10 01:50:22;;;;;;;0.43;0.43;;;9.80;99.90;;;;;;4971396;28;20030;-72
2022/09/10 01:53:10;;;;;;;2.45;0.75;;;9.80;99.90;;;;;;4995586;28;20034;-71
2022/09/10 01:55:44;;;;;;;0.50;0.50;;;9.80;99.90;;;;;;5010192;28;20453;-72
2022/09/10 01:58:16;;;;;;;2.55;1.23;;;9.80;99.90;;;;;;5008414;28;20704;-71
2022/09/10 02:00:48;;;;;;;0.40;0.40;;;9.90;99.90;;;;;;5010284;28;20269;-71
2022/09/10 02:03:17;;;;;;;0.30;0.30;;;9.90;99.90;;;;;;5008636;28;20090;-71
2022/09/10 02:05:47;;;;;;;0.30;0.30;;;9.90;99.90;;;;;;5009983;28;20393;-71
2022/09/10 02:08:25;;;;;;;0.40;0.40;;;9.90;99.90;;;;;;4996410;28;20474;-71
2022/09/10 02:10:54;;;;;;;;;;;9.90;99.90;;;;;;4989563;28;20702;-72
2022/09/10 02:13:22;;;;;;;0.30;0.30;;;9.80;99.90;;;;;;4989954;28;19910;-72
2022/09/10 02:15:50;;;;;;;0.30;0.30;;;9.80;99.90;;;;;;5008235;28;20040;-73
2022/09/10 02:18:18;;;;;;;1.25;1.15;;;9.90;99.90;;;;;;5010175;28;20473;-71
2022/09/10 02:20:44;;;;;;;0.57;0.57;;;9.80;99.90;;;;;;5009924;28;20429;-71
2022/09/10 02:23:12;;;;;;;0.60;0.60;;;9.80;99.90;;;;;;4998442;28;20029;-72
2022/09/10 02:25:38;;;;;;;0.30;0.30;;;9.80;99.90;;;;;;4990006;28;20325;-72
2022/09/10 02:28:05;;;;;;;0.53;0.53;;;9.80;99.90;;;;;;4990157;28;20023;-71
2022/09/10 02:30:30;;;;;;;;;;;9.70;99.90;;;;;;5007837;28;20650;-71
2022/09/10 02:32:56;;;;;;;0.40;0.40;;;9.80;99.90;;;;;;5009627;28;19926;-71
2022/09/10 02:35:21;;;;;;;0.43;0.43;;;9.70;99.90;;;;;;5009632;28;20038;-71
2022/09/10 02:37:49;;;;;;;0.60;0.60;;;9.70;99.90;;;;;;5003781;28;20085;-71
2022/09/10 02:40:18;;;;;;;0.40;0.40;;;9.80;99.90;;;;;;4988104;28;20101;-71
2022/09/10 02:42:45;;;;;;;0.40;0.40;;;9.80;99.90;;;;;;4989986;28;20034;-70
2022/09/10 02:45:12;;;;;;;0.52;0.52;;;9.80;99.90;;;;;;5001547;28;20037;-71
2022/09/10 02:47:38;;;;;;;3.03;0.93;;;9.80;99.90;;;;;;4994357;28;20030;-72
2022/09/10 02:50:04;;;;;;;0.40;0.40;;;9.80;99.90;;;;;;4989807;28;20076;-73
2022/09/10 02:52:30;;;;;;;0.57;0.57;;;9.80;99.90;;;;;;4990255;28;20478;-72
2022/09/10 02:54:55;;;;;;;0.60;0.60;;;9.80;99.90;;;;;;4995004;28;20072;-70
2022/09/10 02:57:21;;;;;;;0.40;0.40;;;9.80;99.90;;;;;;5009097;28;20152;-71
2022/09/10 02:59:46;;;;;;;0.37;0.37;;;9.80;99.90;;;;;;5000929;28;20027;-71
2022/09/10 03:02:12;;;;;;;0.40;0.40;;;9.80;99.90;;;;;;4989944;28;20111;-72
2022/09/10 03:04:38;;;;;;;0.40;0.40;;;9.80;99.90;;;;;;4989601;28;20029;-72
2022/09/10 03:07:03;;;;;;;0.30;0.30;;;9.80;99.90;;;;;;4989821;28;20038;-72
2022/09/10 03:09:29;;;;;;;1.57;1.47;;;9.80;99.90;;;;;;4990205;28;20131;-72
2022/09/10 03:11:54;;;;;;;0.30;0.30;;;9.80;99.90;;;;;;4989657;28;20463;-71
2022/09/10 03:14:22;;;;;;;0.40;0.40;;;9.80;99.90;;;;;;4992017;28;20541;-71
2022/09/10 03:16:48;;;;;;;1.00;0.77;;;9.80;99.90;;;;;;5009161;28;20440;-71
2022/09/10 03:19:14;;;;;;;0.45;0.45;;;9.90;99.90;;;;;;5008888;28;20486;-72
2022/09/10 03:21:41;;;;;;;1.07;1.07;;;9.90;99.90;;;;;;5007090;28;20038;-71
2022/09/10 03:24:07;;;;;;;0.70;0.70;;;9.90;99.90;;;;;;5007320;28;20285;-71
2022/09/10 03:26:33;;;;;;;0.32;0.32;;;10.00;99.90;;;;;;5007242;28;20077;-71
2022/09/10 03:29:02;;;;;;;0.43;0.43;;;9.90;99.90;;;;;;5004336;28;20053;-72
2022/09/10 03:31:27;;;;;;;1.55;1.38;;;9.90;99.90;;;;;;4989221;28;20037;-72
2022/09/10 03:33:53;;;;;;;0.40;0.40;;;9.90;99.90;;;;;;4989170;28;20022;-72
2022/09/10 03:36:19;;;;;;;0.40;0.40;;;9.90;99.90;;;;;;4988959;28;20117;-71
2022/09/10 03:38:45;;;;;;;0.47;0.47;;;10.00;99.90;;;;;;4988777;28;20091;-71
2022/09/10 03:41:11;;;;;;;0.40;0.40;;;10.00;99.90;;;;;;4988638;28;20046;-72
2022/09/10 03:43:36;;;;;;;1.70;1.40;;;10.00;99.90;;;;;;4988771;28;20046;-72
2022/09/10 03:46:02;;;;;;;0.40;0.40;;;10.00;99.90;;;;;;4988874;28;20518;-71
2022/09/10 03:48:28;;;;;;;0.40;0.40;;;10.00;99.90;;;;;;4988920;28;20109;-71
2022/09/10 03:50:55;;;;;;;0.30;0.30;;;10.00;99.90;;;;;;4989400;28;20038;-71
2022/09/10 03:53:21;;;;;;;0.40;0.40;;;9.90;99.90;;;;;;4986888;28;20028;-72
2022/09/10 03:55:49;;;;;;;1.08;1.08;;;10.00;99.90;;;;;;4988837;28;20379;-71
2022/09/10 03:58:16;;;;;;;0.65;0.65;;;10.00;99.90;;;;;;4991099;28;20030;-72
2022/09/10 04:00:42;;;;;;;0.40;0.40;;;9.90;99.90;;;;;;5006701;28;20026;-73
2022/09/10 04:03:09;;;;;;;0.43;0.43;;;9.90;99.90;;;;;;5006827;28;20079;-72
2022/09/10 04:05:39;;;;;;;0.40;0.40;;;9.90;99.90;;;;;;5008210;28;20034;-71
2022/09/10 04:08:06;;;;;;;1.05;0.95;;;10.00;99.90;;;;;;5008136;28;20025;-72
2022/09/10 04:10:32;;;;;;;0.30;0.30;;;10.00;99.90;;;;;;5005406;28;20070;-72
2022/09/10 04:12:57;;;;;;;0.40;0.40;;;10.00;99.90;;;;;;4989227;28;20113;-72
2022/09/10 04:15:24;;;;;;;0.40;0.40;;;10.00;99.90;;;;;;5006424;28;20108;-71
2022/09/10 04:17:53;;;;;;;;;;;10.00;99.90;;;;;;5008357;28;20056;-72
2022/09/10 04:20:23;;;;;;;0.47;0.47;;;10.00;99.90;;;;;;5006106;28;19985;-72
2022/09/10 04:22:52;;;;;;;0.98;0.93;;;10.10;99.90;;;;;;5007823;28;20030;-72
2022/09/10 04:25:19;;;;;;;0.30;0.30;;;10.00;99.90;;;;;;5007663;28;20026;-72
2022/09/10 04:27:45;;;;;;;0.40;0.40;;;10.00;99.90;;;;;;5005094;28;20041;-71
2022/09/10 04:30:12;;;;;;;0.50;0.50;;;10.00;99.90;;;;;;4988050;28;20044;-71
2022/09/10 04:32:38;;;;;;;0.40;0.40;;;10.00;99.90;;;;;;4988532;28;20393;-71
2022/09/10 04:35:05;;;;;;;0.67;0.67;;;10.10;99.90;;;;;;4986704;28;20031;-71
2022/09/10 04:37:31;;;;;;;1.02;1.00;;;10.00;99.90;;;;;;4988393;28;20050;-72
2022/09/10 04:39:57;;;;;;;0.50;0.50;;;10.00;99.90;;;;;;5004370;28;20042;-72
2022/09/10 04:42:23;;;;;;;0.30;0.30;;;10.00;99.90;;;;;;5008108;28;20526;-72
2022/09/10 04:44:49;;;;;;;1.08;0.68;;;10.00;99.90;;;;;;4989654;28;20042;-72
2022/09/10 04:47:16;;;;;;;1.83;1.43;;;10.00;99.90;;;;;;4987942;28;20122;-72
2022/09/10 04:49:42;;;;;;;0.40;0.40;;;10.00;99.90;;;;;;4998315;28;20037;-72
2022/09/10 04:52:09;;;;;;;3.10;1.23;;;10.00;99.90;;;;;;5006008;28;20692;-71
2022/09/10 04:54:36;;;;;;;0.82;0.82;;;10.10;99.90;;;;;;5006109;28;20026;-72
2022/09/10 04:57:03;;;;;;;0.50;0.50;;;10.00;99.90;;;;;;5005524;28;20442;-71
2022/09/10 04:59:28;;;;;;;0.32;0.32;;;10.00;99.90;;;;;;4987882;28;20087;-72
2022/09/10 05:01:54;;;;;;;0.50;0.50;;;10.00;99.90;;;;;;4988091;28;20034;-72
2022/09/10 05:04:20;;;;;;;0.50;0.50;;;10.10;99.90;;;;;;4987594;28;20500;-72
2022/09/10 05:06:49;;;;;;;0.60;0.60;;;10.10;99.90;;;;;;4988055;28;20489;-71
2022/09/10 05:09:18;;;;;;;0.40;0.40;;;10.10;99.90;;;;;;4988901;28;20429;-71
2022/09/10 05:11:45;;;;;;;0.57;0.57;;;10.10;99.90;;;;;;4988799;28;20030;-72
2022/09/10 05:14:12;;;;;;;0.30;0.30;;;10.10;99.90;;;;;;5003312;28;20022;-72
2022/09/10 05:16:38;;;;;;;0.63;0.63;;;10.10;99.90;;;;;;5007377;28;20034;-72
2022/09/10 05:19:03;;;;;;;0.47;0.47;;;10.10;99.90;;;;;;5005042;28;20056;-72
2022/09/10 05:21:30;;;;;;;0.40;0.40;;;10.20;99.90;;;;;;5007307;28;20042;-71
2022/09/10 05:23:56;;;;;;;0.47;0.47;;;10.10;99.90;;;;;;5007316;28;20026;-72
2022/09/10 05:26:22;;;;;;;0.40;0.40;;;10.10;99.90;;;;;;5006998;28;20496;-72
2022/09/10 05:28:48;;;;;;;0.30;0.30;;;10.20;99.90;;;;;;5006768;28;20030;-72
2022/09/10 05:31:15;;;;;;;0.40;0.40;;;10.10;99.90;;;;;;5007121;28;20504;-72
2022/09/10 05:33:41;;;;;;;1.17;0.65;;;10.10;99.90;;;;;;5005507;28;20397;-71
2022/09/10 05:36:08;;;;;;;0.50;0.50;;;10.10;99.90;;;;;;5007009;28;20030;-72
2022/09/10 05:38:34;;;;;;;0.50;0.50;;;10.10;99.90;;;;;;5004828;28;20037;-72
2022/09/10 05:40:59;;;;;;;0.40;0.40;;;10.10;99.90;;;;;;5005056;28;20045;-72
2022/09/10 05:43:26;;;;;;;0.83;0.83;;;10.10;99.90;;;;;;4992631;28;20549;-72
2022/09/10 05:45:52;;;;;;;0.50;0.50;;;10.10;99.90;;;;;;4987557;28;20046;-72
2022/09/10 05:48:18;;;;;;;0.80;0.80;;;10.10;99.90;;;;;;4988094;28;20034;-72
2022/09/10 05:50:46;;;;;;;0.43;0.43;;;10.10;99.90;;;;;;4987336;28;20463;-70
2022/09/10 05:53:12;;;;;;;0.45;0.45;;;10.10;99.90;;;;;;4987141;28;20034;-72
2022/09/10 05:55:38;;;;;;;0.30;0.30;;;10.10;99.90;;;;;;4986011;28;20375;-71
2022/09/10 05:58:04;;;;;;;0.53;0.53;;;10.00;99.90;;;;;;5003871;28;20068;-71
2022/09/10 06:00:29;;;;;;;0.40;0.40;;;10.00;99.90;;;;;;5006909;28;20040;-71
2022/09/10 06:02:58;;;;;;;0.60;0.60;;;10.10;99.90;;;;;;5006800;28;20427;-72
2022/09/10 06:05:24;;;;;;;0.30;0.30;;;10.00;99.90;;;;;;5006653;28;20029;-72
2022/09/10 06:07:50;;;;;;;0.73;0.73;;;10.10;99.90;;;;;;5004847;28;20554;-71
2022/09/10 06:10:15;;;;;;;0.60;0.60;;;10.10;99.90;;;;;;5006725;28;20468;-72
2022/09/10 06:12:48;;;;;;;0.40;0.40;;;10.10;99.90;;;;;;4994675;28;20042;-72
2022/09/10 06:15:14;;;;;;;0.40;0.40;;;10.10;99.90;;;;;;4988521;28;20525;-73
2022/09/10 06:17:40;;;;;;;0.70;0.70;;;10.10;99.90;;;;;;4992109;28;20374;-71
2022/09/10 06:20:06;;;;;;;0.93;0.73;;;10.10;99.90;;;;;;4997955;28;20030;-72
2022/09/10 06:22:32;;;;;;;0.50;0.50;;;10.10;99.90;;;;;;5010376;28;20038;-71
2022/09/10 06:24:58;;;;;;;0.30;0.30;;;10.00;99.90;;;;;;5010376;28;20247;-72
2022/09/10 06:27:24;;;;;;;0.40;0.40;;;10.00;99.90;;;;;;5009921;28;20038;-72
2022/09/10 06:29:50;;;;;;;0.47;0.47;;;10.00;99.90;;;;;;5008974;28;20501;-74
2022/09/10 06:32:16;;;;;;;0.40;0.40;;;10.20;99.90;;;;;;5008555;28;20570;-72
2022/09/10 06:34:41;;;;;;;0.40;0.40;;;10.00;99.90;;;;;;5009882;28;20162;-72
2022/09/10 06:37:07;;;;;;;0.40;0.40;;;10.00;99.90;;;;;;5002462;28;20382;-73
2022/09/10 06:39:32;;;;;;;2.00;0.73;;;10.00;99.90;;;;;;4990318;28;20482;-72
2022/09/10 06:41:58;;;;;;;1.00;0.93;;;10.00;99.90;;;;;;4999576;28;20504;-71
2022/09/10 06:44:25;;;;;;;0.77;0.77;;;10.00;99.90;;;;;;5008351;28;20057;-72
2022/09/10 06:46:52;;;;;;;0.60;0.60;;;10.00;99.90;;;;;;5007790;28;20038;-72
2022/09/10 06:49:17;;;;;;;0.70;0.70;;;10.00;99.90;;;;;;5007898;28;20030;-71
2022/09/10 06:51:43;;;;;;;1.00;0.80;;;10.00;99.90;;;;;;5009569;28;20099;-72
2022/09/10 06:54:09;;;;;;;1.17;1.03;;;10.00;99.90;;;;;;5008441;28;20461;-72
2022/09/10 06:56:34;;;;;;;1.50;1.20;;;10.00;99.90;;;;;;4997275;28;20134;-72
2022/09/10 06:59:00;;;;;;;0.80;0.80;;;10.00;99.90;;;;;;4990017;28;20034;-71
2022/09/10 07:01:26;;;;;;;0.60;0.60;;;9.90;99.90;;;;;;4990739;28;20026;-71
2022/09/10 07:03:56;;;;;;;1.10;0.93;;;9.90;99.90;;;;;;4988634;28;20286;-71
2022/09/10 07:06:22;;;;;;;0.40;0.40;;;9.90;99.90;;;;;;4981284;28;20137;-71
2022/09/10 07:08:52;;;;;;;0.40;0.40;;;9.90;99.90;;;;;;4989702;28;20023;-71
2022/09/10 07:11:18;;;;;;;0.52;0.52;;;10.00;99.90;;;;;;5001600;28;20079;-71
2022/09/10 07:13:43;;;;;;;0.40;0.40;;;9.90;99.90;;;;;;5009118;28;20030;-71
2022/09/10 07:16:09;;;;;;;0.50;0.50;;;9.90;99.90;;;;;;5009225;28;20038;-71
2022/09/10 07:18:35;;;;;;;1.60;1.37;;;9.80;99.90;;;;;;5008530;28;20054;-71
2022/09/10 07:21:11;;;;;;;1.17;0.80;;;9.80;99.90;;;;;;5002544;28;20039;-67
2022/09/10 07:23:40;;;;;;;0.60;0.60;;;9.80;99.90;;;;;;4987566;28;20026;-67
2022/09/10 07:26:08;;;;;;;0.65;0.65;;;9.80;99.90;;;;;;4995032;28;20046;-66
2022/09/10 07:28:35;;;;;;;0.43;0.43;;;9.90;99.90;;;;;;4980286;28;20022;-66
2022/09/10 07:31:26;;;;;;;1.38;1.35;;;9.90;99.90;;;;;;4976109;28;20083;-66
2022/09/10 07:33:54;;;;;;;0.40;0.40;;;9.90;99.90;;;;;;4975007;28;20088;-66
2022/09/10 07:36:20;;;;;;;0.63;0.63;;;9.90;99.90;;;;;;4979206;28;20390;-67
2022/09/10 07:38:46;;;;;;;1.00;1.00;;;9.90;99.90;;;;;;4989445;28;20035;-67
2022/09/10 07:41:14;;;;;;;0.85;0.85;;;10.00;99.90;;;;;;4996546;28;20203;-67
2022/09/10 07:43:41;;;;;;;0.40;0.40;;;9.90;99.90;;;;;;4996805;28;20050;-67
2022/09/10 07:46:11;;;;;;;0.93;0.93;;;10.00;99.90;;;;;;4989771;28;20161;-67
2022/09/10 07:48:37;;;;;;;0.40;0.40;;;9.90;99.90;;;;;;4989697;28;20447;-66
2022/09/10 07:51:04;;;;;;;1.10;1.10;;;9.90;99.90;;;;;;4987538;28;20045;-67
2022/09/10 07:53:30;;;;;;;0.77;0.77;;;9.90;99.90;;;;;;4989520;28;20348;-66
2022/09/10 07:56:06;;;;;;;1.10;0.93;;;9.80;99.90;;;;;;4984600;28;20051;-67
2022/09/10 07:58:34;;;;;;;0.70;0.70;;;9.80;99.90;;;;;;4970081;28;20191;-67
2022/09/10 08:01:01;;;;;;;0.45;0.45;;;9.80;99.90;;;;;;4969925;28;20057;-67
2022/09/10 08:03:27;;;;;;;0.68;0.68;;;9.80;99.90;;;;;;4970648;28;20412;-67
2022/09/10 08:05:53;;;;;;;0.70;0.70;;;9.80;99.90;;;;;;4969891;28;20082;-68
2022/09/10 08:08:20;;;;;;;0.40;0.40;;;9.80;99.90;;;;;;4969391;28;20026;-68
2022/09/10 08:10:47;;;;;;;1.00;1.00;;;9.80;99.90;;;;;;4975710;28;20054;-68
2022/09/10 08:13:13;;;;;;;0.50;0.50;;;9.80;99.90;;;;;;4988833;28;20030;-69
2022/09/10 08:15:45;;;;;;;0.40;0.40;;;9.70;99.90;;;;;;4989181;28;20070;-65
2022/09/10 08:18:12;;;;;;;0.63;0.63;;;9.70;99.90;;;;;;4989250;28;20027;-68
2022/09/10 08:20:39;;;;;;;1.95;1.27;;;9.70;99.90;;;;;;4987189;28;20072;-67
2022/09/10 08:23:05;;;;;;;1.42;1.33;;;9.60;99.90;;;;;;4987518;28;20113;-68
2022/09/10 08:25:32;;;;;;;0.70;0.70;;;9.70;99.90;;;;;;4988555;28;20042;-67
2022/09/10 08:27:58;;;;;;;;;;;9.70;99.90;;;;;;4988311;28;20068;-68
2022/09/10 08:30:23;;;;;;;0.35;0.35;;;9.80;99.90;;;;;;4985771;28;19992;-66
2022/09/10 08:32:49;;;;;;;4.60;1.17;;;9.70;99.90;;;;;;4970749;28;20035;-69
2022/09/10 08:35:14;;;;;;;0.70;0.70;;;9.70;99.90;;;;;;4969284;28;20109;-67
2022/09/10 08:37:40;;;;;;;0.40;0.40;;;9.70;99.90;;;;;;4969158;28;20395;-67
2022/09/10 08:40:10;;;;;;;3.50;1.25;;;9.70;99.90;;;;;;4974844;28;20034;-67
2022/09/10 08:42:44;;;;;;;0.50;0.50;;;9.70;99.90;;;;;;4987760;28;20253;-68
2022/09/10 08:45:22;;;;;;;0.52;0.52;;;9.70;99.90;;;;;;4988642;28;20072;-66
2022/09/10 08:48:05;;;;;;;0.40;0.40;;;9.70;99.90;;;;;;4989008;28;20090;-69
2022/09/10 08:50:45;;;;;;;0.52;0.52;;;9.70;99.90;;;;;;4983462;28;20041;-67
2022/09/10 08:53:26;;;;;;;0.40;0.40;;;9.70;99.90;;;;;;4970118;28;20030;-68
2022/09/10 08:56:00;;;;;;;1.58;1.23;;;9.60;99.90;;;;;;4978537;28;20034;-69
2022/09/10 08:58:40;;;;;;;0.82;0.82;;;9.70;99.90;;;;;;4988183;28;20472;-69
2022/09/10 09:01:10;;;;;;;0.82;0.82;;;9.70;99.90;;;;;;4991149;28;20038;-69
2022/09/10 09:03:43;;;;;;;1.33;1.23;;;9.60;99.90;;;;;;4988586;28;20030;-68
2022/09/10 09:06:39;;;;;;;0.50;0.50;;;9.70;99.90;;;;;;4968550;28;20058;-68
2022/09/10 09:09:05;;;;;;;1.00;1.00;;;9.70;99.90;;;;;;4969255;28;20545;-68
2022/09/10 09:11:50;;;;;;;0.40;0.40;;;9.70;99.90;;;;;;4987992;28;20030;-68
2022/09/10 09:14:24;;;;;;;0.40;0.40;;;9.70;99.90;;;;;;4987880;28;20256;-68
2022/09/10 09:17:00;;;;;;;0.30;0.30;;;9.70;99.90;;;;;;4987933;28;20099;-69
2022/09/10 09:19:33;;;;;;;0.75;0.75;;;9.70;99.90;;;;;;4987266;28;20026;-68
2022/09/10 09:22:23;;;;;;;0.30;0.30;;;9.70;99.90;;;;;;4987151;28;20034;-69
2022/09/10 09:25:21;;;;;;;0.73;0.73;;;9.70;99.90;;;;;;4982773;28;20042;-69
2022/09/10 09:27:50;;;;;;;0.50;0.50;;;9.70;99.90;;;;;;4970863;28;20058;-69
2022/09/10 09:30:19;;;;;;;0.40;0.40;;;9.70;99.90;;;;;;4974834;28;20351;-68
2022/09/10 09:32:46;;;;;;;1.05;1.05;;;9.80;99.90;;;;;;4988245;28;20034;-68
2022/09/10 09:35:24;;;;;;;1.08;1.00;;;9.90;99.90;;;;;;4972798;28;20440;-68
2022/09/10 09:38:07;;;;;;;0.40;0.40;;;9.70;99.90;;;;;;4967907;28;20038;-68
2022/09/10 09:40:42;;;;;;;0.40;0.40;;;9.70;99.90;;;;;;4983164;28;20034;-68
2022/09/10 09:43:31;;;;;;;1.30;1.20;;;9.70;99.90;;;;;;4985707;28;20043;-66
2022/09/10 09:45:57;;;;;;;1.08;1.08;;;9.80;99.90;;;;;;4986923;28;20030;-67
2022/09/10 09:48:23;;;;;;;0.45;0.45;;;9.80;99.90;;;;;;4987115;28;20427;-67
2022/09/10 09:50:55;;;;;;;0.77;0.77;;;9.70;99.90;;;;;;4988294;28;20042;-67
2022/09/10 09:53:26;;;;;;;0.77;0.65;;;9.70;99.90;;;;;;4991313;28;20014;-67
2022/09/10 09:55:57;;;;;;;2.08;1.95;;;9.70;99.90;;;;;;5007041;28;20040;-67
2022/09/10 09:58:23;;;;;;;1.67;1.58;;;9.80;99.90;;;;;;5009899;28;20468;-65
2022/09/10 10:00:53;;;;;;;0.83;0.83;;;9.90;99.90;;;;;;5006341;28;20034;-65
2022/09/10 10:03:26;;;;;;;0.45;0.45;;;9.90;99.90;;;;;;5009835;28;20049;-66
2022/09/10 10:06:04;;;;;;;0.68;0.68;;;9.90;99.90;;;;;;5010139;28;20029;-67
2022/09/10 10:08:35;;;;;;;0.68;0.68;;;9.90;99.90;;;;;;5005786;28;20050;-66
2022/09/10 10:11:01;;;;;;;0.73;0.73;;;10.00;99.90;;;;;;4990503;28;20496;-67
2022/09/10 10:13:42;;;;;;;0.83;0.83;;;10.00;99.90;;;;;;4990751;28;20018;-66
2022/09/10 10:16:21;;;;;;;0.90;0.90;;;10.00;99.90;;;;;;4990537;28;20038;-65
2022/09/10 10:18:48;;;;;;;0.70;0.70;;;10.10;99.90;;;;;;4991561;28;20037;-64
2022/09/10 10:21:19;;;;;;;0.65;0.65;;;10.00;99.90;;;;;;4990730;28;20140;-66
2022/09/10 10:23:46;;;;;;;0.30;0.30;;;9.90;99.90;;;;;;4994064;28;20079;-65
2022/09/10 10:26:14;;;;;;;;;;;9.80;99.90;;;;;;5010248;28;20034;-65
2022/09/10 10:28:45;;;;;;;0.50;0.50;;;9.80;99.90;;;;;;5009946;28;19905;-66
2022/09/10 10:31:11;;;;;;;0.80;0.80;;;9.80;99.90;;;;;;4990837;28;20031;-65
2022/09/10 10:33:53;;;;;;;0.73;0.73;;;9.80;99.90;;;;;;5005702;28;20278;-65
2022/09/10 10:36:28;;;;;;;0.45;0.45;;;9.90;99.90;;;;;;4970296;28;20043;-66
2022/09/10 10:39:02;;;;;;;0.65;0.65;;;9.90;99.90;;;;;;4992409;28;20081;-65
2022/09/10 10:41:34;;;;;;;0.70;0.65;;;9.80;99.90;;;;;;5009311;28;20429;-65
2022/09/10 10:44:22;;;;;;;1.05;1.05;;;9.80;99.90;;;;;;5009033;28;20050;-65
2022/09/10 10:47:16;;;;;;;0.50;0.50;;;9.80;99.90;;;;;;5009235;28;20446;-65
2022/09/10 10:50:05;;;;;;;0.82;0.82;;;9.80;99.90;;;;;;5004110;28;20023;-65
2022/09/10 10:52:43;;;;;;;1.25;1.17;;;9.80;99.90;;;;;;5009382;28;20500;-65
2022/09/10 10:55:22;;;;;;;0.40;0.40;;;9.90;99.90;;;;;;4990093;28;20030;-65
2022/09/10 10:58:15;;;;;;;0.40;0.40;;;9.90;99.90;;;;;;4988192;28;20503;-65
2022/09/10 11:01:13;;;;;;;1.13;1.10;;;9.90;99.90;;;;;;5006021;28;20077;-64
2022/09/10 11:04:03;;;;;;;0.73;0.73;;;9.90;99.90;;;;;;5052738;28;20050;-65
2022/09/10 11:06:43;;;;;;;0.60;0.60;;;9.80;99.90;;;;;;5009262;28;20030;-64
2022/09/10 11:09:50;;;;;;;1.33;1.23;;;9.90;99.90;;;;;;4990490;28;20031;-65
2022/09/10 11:12:40;;;;;;;1.40;1.30;;;9.90;99.90;;;;;;4989762;28;20088;-66
2022/09/10 11:15:29;;;;;;;1.67;1.58;;;10.00;99.90;;;;;;4988904;28;20019;-67
2022/09/10 11:18:05;;;;;;;2.35;1.50;;;10.00;99.90;;;;;;4989808;28;20707;-64
2022/09/10 11:20:38;;;;;;;1.13;1.08;;;10.00;99.90;;;;;;4989125;28;20378;-65
2022/09/10 11:23:44;;;;;;;0.55;0.55;;;10.00;99.90;;;;;;4996170;28;20366;-65
2022/09/10 11:26:22;;;;;;;0.50;0.50;;;10.10;99.90;;;;;;5009005;28;20037;-67
2022/09/10 11:29:15;;;;;;;0.75;0.75;;;10.10;99.90;;;;;;4999037;28;20588;-66
2022/09/10 11:31:48;;;;;;;0.35;0.35;;;10.10;99.90;;;;;;4974062;28;20031;-65
2022/09/10 11:34:56;;;;;;;1.02;1.02;;;10.10;99.90;;;;;;4975797;28;20037;-65
2022/09/10 11:38:00;;;;;;;1.30;0.90;;;10.10;99.90;;;;;;4982452;28;20401;-66
2022/09/10 11:40:40;;;;;;;0.60;0.60;;;10.10;99.90;;;;;;5010945;28;20049;-65
2022/09/10 11:43:11;;;;;;;0.40;0.40;;;10.10;99.90;;;;;;4967729;28;20070;-65
2022/09/10 11:45:47;;;;;;;1.38;1.10;;;10.20;99.90;;;;;;4967948;28;20042;-65
2022/09/10 11:48:16;;;;;;;0.73;0.73;;;10.20;99.90;;;;;;4979890;28;20076;-65
2022/09/10 11:50:50;;;;;;;0.70;0.70;;;10.20;99.90;;;;;;4988023;28;20053;-65
2022/09/10 11:53:19;;;;;;;0.82;0.82;;;10.30;99.90;;;;;;5000884;28;20100;-68
2022/09/10 11:56:17;;;;;;;1.05;0.95;;;10.30;99.90;;;;;;5008565;28;20036;-65
2022/09/10 11:59:03;;;;;;;1.47;1.37;;;10.30;99.90;;;;;;5008151;28;20064;-66
2022/09/10 12:01:48;;;;;;;0.55;0.55;;;10.30;99.90;;;;;;5021852;28;20279;-64
2022/09/10 12:04:25;;;;;;;1.13;1.02;;;10.30;99.90;;;;;;5008827;28;20026;-66
2022/09/10 12:07:03;;;;;;;0.63;0.63;;;10.50;99.90;;;;;;5001974;28;20118;-67
2022/09/10 12:09:53;;;;;;;1.35;1.25;;;10.30;99.90;;;;;;4988630;28;20459;-64
2022/09/10 12:12:19;;;;;;;1.20;1.10;;;10.50;99.90;;;;;;4988151;28;20027;-66
2022/09/10 12:14:44;;;;;;;0.47;0.47;;;10.40;99.90;;;;;;4988985;28;20029;-66
2022/09/10 12:17:18;;;;;;;1.67;1.60;;;10.40;99.90;;;;;;4988344;28;20122;-65
2022/09/10 12:19:48;;;;;;;0.70;0.70;;;10.40;99.90;;;;;;4989051;28;20432;-67
2022/09/10 12:22:19;;;;;;;0.68;0.68;;;10.40;99.90;;;;;;4995787;28;20033;-66
2022/09/10 12:25:04;;;;;;;0.63;0.63;;;10.40;99.90;;;;;;5007734;28;20058;-66
2022/09/10 12:28:06;;;;;;;0.70;0.70;;;10.40;99.90;;;;;;5002203;28;20513;-67
2022/09/10 12:30:34;;;;;;;2.97;2.13;;;10.50;99.90;;;;;;5038076;28;20034;-66
2022/09/10 12:33:12;;;;;;;0.75;0.75;;;10.40;99.90;;;;;;4987982;28;20381;-65
2022/09/10 12:35:44;;;;;;;0.45;0.45;;;10.40;99.90;;;;;;4987463;28;20049;-66
2022/09/10 12:38:48;;;;;;;0.65;0.65;;;10.50;99.90;;;;;;4988117;28;20121;-67
2022/09/10 12:41:19;;;;;;;1.27;1.20;;;10.50;99.90;;;;;;4986635;28;20341;-74
2022/09/10 12:43:45;;;;;;;1.63;1.52;;;10.50;99.90;;;;;;4987835;28;20556;-72
2022/09/10 12:46:13;;;;;;;0.93;0.90;;;10.50;99.90;;;;;;4986240;28;20034;-74
2022/09/10 12:48:47;;;;;;;1.45;1.35;;;10.40;99.90;;;;;;5002624;28;20155;-74
2022/09/10 12:51:16;;;;;;;0.40;0.40;;;10.50;99.90;;;;;;4996271;28;20060;-75
2022/09/10 12:53:54;;;;;;;1.58;1.48;;;10.50;99.90;;;;;;5007496;28;20030;-74
2022/09/10 12:57:07;;;;;;;0.60;0.60;;;10.50;99.90;;;;;;4994509;28;20042;-73
2022/09/10 12:59:55;;;;;;;2.40;1.52;;;10.50;99.90;;;;;;5024319;28;20045;-74
2022/09/10 13:02:39;;;;;;;1.10;1.10;;;10.50;99.90;;;;;;4986668;28;20133;-74
2022/09/10 13:05:16;;;;;;;1.48;1.38;;;10.60;99.90;;;;;;4988063;28;20426;-75
2022/09/10 13:07:44;;;;;;;2.03;1.92;;;10.60;99.90;;;;;;4985906;28;20031;-74
2022/09/10 13:10:20;;;;;;;0.80;0.80;;;10.60;99.90;;;;;;4987416;28;20079;-73
2022/09/10 13:12:50;;;;;;;0.60;0.60;;;10.60;99.90;;;;;;4988166;28;20126;-73
2022/09/10 13:15:21;;;;;;;0.85;0.85;;;10.60;99.90;;;;;;4999574;28;20037;-73